MSR633 HECA-OEGS
Flight info
| Callsign | MSR633 |
|---|---|
| Flight time | 1h 38m |
| Altitude | 37000 |
| Route | CVO L677 MENLI N697 SISIK W976 DATOK L550 KARIK B411 ULINA DCT DEESA Y415 LABAD B544 ENABI T540 HIL G662 GAS |
| Aircraft | B38M/M-SDE1FGHILORVWXY/HB1 |
Departure
| Time | 2026-05-04 12:05 |
|---|---|
| Airport | Cairo International Airport (HECA) |
Arrival
| Time | 2026-05-04 13:43 |
|---|---|
| Airport | Prince Naif bin Abdulaziz International Airport (OEGS) |
| Time | Latitude | Longitude | Altitude | Speed | Heading |
|---|---|---|---|---|---|
| 2026-05-04 11:51 | 30.11177 | 31.40749 | 377 ft | 0 kts | 320° |
| 2026-05-04 11:56 | 30.11176 | 31.40751 | 377 ft | 0 kts | 343° |
| 2026-05-04 11:56 | 30.11173 | 31.40752 | 377 ft | 2 kts | 329° |
| 2026-05-04 11:56 | 30.11161 | 31.40763 | 377 ft | 2 kts | 321° |
| 2026-05-04 11:57 | 30.11148 | 31.40775 | 377 ft | 2 kts | 321° |
| 2026-05-04 11:57 | 30.11136 | 31.40787 | 377 ft | 2 kts | 321° |
| 2026-05-04 11:57 | 30.11122 | 31.40796 | 377 ft | 2 kts | 356° |
| 2026-05-04 11:57 | 30.11111 | 31.40794 | 377 ft | 0 kts | 37° |
| 2026-05-04 11:58 | 30.11112 | 31.40794 | 377 ft | 0 kts | 37° |
| 2026-05-04 11:58 | 30.11119 | 31.40802 | 377 ft | 0 kts | 46° |
| 2026-05-04 11:59 | 30.11148 | 31.40839 | 377 ft | 13 kts | 48° |
| 2026-05-04 11:59 | 30.11221 | 31.40936 | 377 ft | 18 kts | 48° |
| 2026-05-04 11:59 | 30.11306 | 31.41048 | 377 ft | 19 kts | 49° |
| 2026-05-04 12:00 | 30.11404 | 31.41178 | 377 ft | 23 kts | 49° |
| 2026-05-04 12:00 | 30.11403 | 31.41328 | 377 ft | 14 kts | 63° |
| 2026-05-04 12:00 | 30.11542 | 31.41521 | 377 ft | 62 kts | 49° |
| 2026-05-04 12:00 | 30.11808 | 31.41875 | 377 ft | 40 kts | 49° |
| 2026-05-04 12:01 | 30.11998 | 31.42127 | 377 ft | 42 kts | 49° |
| 2026-05-04 12:01 | 30.12166 | 31.42352 | 377 ft | 39 kts | 49° |
| 2026-05-04 12:02 | 30.12133 | 31.42539 | 377 ft | 11 kts | 139° |
| 2026-05-04 12:03 | 30.12047 | 31.42599 | 375 ft | 6 kts | 207° |
| 2026-05-04 12:03 | 30.12022 | 31.42558 | 375 ft | 0 kts | 230° |
| 2026-05-04 12:04 | 30.12018 | 31.42552 | 375 ft | 5 kts | 230° |
| 2026-05-04 12:04 | 30.11798 | 31.42254 | 372 ft | 93 kts | 229° |
| 2026-05-04 12:05 | 30.11195 | 31.41462 | 393 ft | 165 kts | 231° |
| 2026-05-04 12:05 | 30.10383 | 31.40382 | 641 ft | 210 kts | 231° |
| 2026-05-04 12:05 | 30.09405 | 31.39099 | 1206 ft | 215 kts | 232° |
| 2026-05-04 12:05 | 30.08444 | 31.37786 | 1830 ft | 212 kts | 233° |
| 2026-05-04 12:06 | 30.07382 | 31.36530 | 2612 ft | 225 kts | 217° |
| 2026-05-04 12:06 | 30.05852 | 31.36061 | 3535 ft | 244 kts | 178° |
| 2026-05-04 12:06 | 30.04194 | 31.36869 | 4076 ft | 277 kts | 142° |
| 2026-05-04 12:06 | 30.03009 | 31.38650 | 5082 ft | 285 kts | 122° |
| 2026-05-04 12:07 | 30.01861 | 31.40581 | 5895 ft | 294 kts | 128° |
| 2026-05-04 12:07 | 30.00718 | 31.42433 | 7454 ft | 268 kts | 123° |
| 2026-05-04 12:07 | 29.99792 | 31.44291 | 8557 ft | 272 kts | 121° |
| 2026-05-04 12:07 | 29.98826 | 31.46258 | 9235 ft | 287 kts | 120° |
| 2026-05-04 12:08 | 29.97822 | 31.48279 | 10084 ft | 298 kts | 121° |
| 2026-05-04 12:08 | 29.96754 | 31.50419 | 10628 ft | 318 kts | 122° |
| 2026-05-04 12:08 | 29.95607 | 31.52694 | 11131 ft | 337 kts | 123° |
| 2026-05-04 12:08 | 29.94400 | 31.55091 | 11752 ft | 351 kts | 123° |
| 2026-05-04 12:09 | 29.93152 | 31.57565 | 12459 ft | 361 kts | 124° |
| 2026-05-04 12:09 | 29.91885 | 31.60077 | 13273 ft | 367 kts | 124° |
| 2026-05-04 12:09 | 29.90588 | 31.62643 | 14059 ft | 372 kts | 124° |
| 2026-05-04 12:09 | 29.89281 | 31.65231 | 14814 ft | 377 kts | 125° |
| 2026-05-04 12:10 | 29.87947 | 31.67870 | 15575 ft | 382 kts | 125° |
| 2026-05-04 12:10 | 29.86600 | 31.70532 | 16295 ft | 387 kts | 125° |
| 2026-05-04 12:10 | 29.85232 | 31.73233 | 16965 ft | 393 kts | 126° |
| 2026-05-04 12:10 | 29.83847 | 31.75968 | 17639 ft | 397 kts | 126° |
| 2026-05-04 12:11 | 29.82460 | 31.78703 | 18278 ft | 402 kts | 126° |
| 2026-05-04 12:11 | 29.81040 | 31.81501 | 18911 ft | 407 kts | 126° |
| 2026-05-04 12:11 | 29.79607 | 31.84325 | 19535 ft | 411 kts | 127° |
| 2026-05-04 12:11 | 29.78244 | 31.87237 | 20096 ft | 421 kts | 116° |
| 2026-05-04 12:12 | 29.77467 | 31.90532 | 20717 ft | 429 kts | 106° |
| 2026-05-04 12:12 | 29.76757 | 31.93895 | 21230 ft | 434 kts | 108° |
| 2026-05-04 12:12 | 29.76015 | 31.97279 | 21763 ft | 438 kts | 108° |
| 2026-05-04 12:12 | 29.75261 | 32.00689 | 22310 ft | 441 kts | 108° |
| 2026-05-04 12:13 | 29.74498 | 32.04128 | 22808 ft | 445 kts | 108° |
| 2026-05-04 12:14 | 29.69220 | 32.27744 | 25928 ft | 468 kts | 108° |
| 2026-05-04 12:15 | 29.68404 | 32.31378 | 26355 ft | 470 kts | 108° |
| 2026-05-04 12:15 | 29.67581 | 32.35037 | 26792 ft | 473 kts | 109° |
| 2026-05-04 12:15 | 29.66754 | 32.38706 | 27199 ft | 475 kts | 109° |
| 2026-05-04 12:15 | 29.65922 | 32.42390 | 27608 ft | 478 kts | 109° |
| 2026-05-04 12:16 | 29.65086 | 32.46095 | 28016 ft | 480 kts | 109° |
| 2026-05-04 12:16 | 29.64246 | 32.49808 | 28399 ft | 482 kts | 109° |
| 2026-05-04 12:16 | 29.63397 | 32.53555 | 28760 ft | 485 kts | 109° |
| 2026-05-04 12:16 | 29.62545 | 32.57310 | 29131 ft | 487 kts | 109° |
| 2026-05-04 12:17 | 29.61687 | 32.61088 | 29472 ft | 489 kts | 109° |
| 2026-05-04 12:17 | 29.60823 | 32.64889 | 29836 ft | 491 kts | 109° |
| 2026-05-04 12:17 | 29.60046 | 32.68715 | 30162 ft | 497 kts | 101° |
| 2026-05-04 12:17 | 29.59971 | 32.72716 | 30536 ft | 502 kts | 88° |
| 2026-05-04 12:18 | 29.60084 | 32.76736 | 30802 ft | 505 kts | 91° |
| 2026-05-04 12:18 | 29.60130 | 32.80783 | 31112 ft | 507 kts | 91° |
| 2026-05-04 12:18 | 29.60170 | 32.84839 | 31427 ft | 509 kts | 91° |
| 2026-05-04 12:18 | 29.60208 | 32.88924 | 31700 ft | 512 kts | 91° |
| 2026-05-04 12:19 | 29.60246 | 32.93023 | 32020 ft | 514 kts | 91° |
| 2026-05-04 12:19 | 29.60282 | 32.97131 | 32284 ft | 517 kts | 91° |
| 2026-05-04 12:19 | 29.60318 | 33.01274 | 32544 ft | 519 kts | 91° |
| 2026-05-04 12:19 | 29.60352 | 33.05432 | 32851 ft | 521 kts | 91° |
| 2026-05-04 12:20 | 29.60385 | 33.09552 | 33099 ft | 524 kts | 91° |
| 2026-05-04 12:20 | 29.60417 | 33.13749 | 33381 ft | 526 kts | 91° |
| 2026-05-04 12:20 | 29.60448 | 33.17967 | 33634 ft | 528 kts | 91° |
| 2026-05-04 12:20 | 29.60477 | 33.22198 | 33876 ft | 530 kts | 91° |
| 2026-05-04 12:21 | 29.60506 | 33.26447 | 34127 ft | 533 kts | 92° |
| 2026-05-04 12:21 | 29.60533 | 33.30713 | 34395 ft | 534 kts | 92° |
| 2026-05-04 12:21 | 29.60558 | 33.34937 | 34725 ft | 534 kts | 92° |
| 2026-05-04 12:21 | 29.60583 | 33.39270 | 35003 ft | 535 kts | 92° |
| 2026-05-04 12:22 | 29.60606 | 33.43509 | 35264 ft | 536 kts | 92° |
| 2026-05-04 12:22 | 29.60628 | 33.47808 | 35531 ft | 536 kts | 92° |
| 2026-05-04 12:22 | 29.60648 | 33.52097 | 35802 ft | 537 kts | 92° |
| 2026-05-04 12:22 | 29.60667 | 33.56377 | 36064 ft | 537 kts | 92° |
| 2026-05-04 12:23 | 29.60685 | 33.60682 | 36302 ft | 537 kts | 92° |
| 2026-05-04 12:23 | 29.60701 | 33.64972 | 36538 ft | 538 kts | 92° |
| 2026-05-04 12:23 | 29.60717 | 33.69285 | 36752 ft | 538 kts | 92° |
| 2026-05-04 12:23 | 29.60730 | 33.73565 | 36994 ft | 538 kts | 92° |
| 2026-05-04 12:24 | 29.60753 | 33.82150 | 37023 ft | 532 kts | 93° |
| 2026-05-04 12:24 | 29.60745 | 33.90602 | 37026 ft | 530 kts | 93° |
| 2026-05-04 12:25 | 29.60733 | 33.99031 | 37028 ft | 531 kts | 93° |
| 2026-05-04 12:25 | 29.60716 | 34.07516 | 37028 ft | 530 kts | 93° |
| 2026-05-04 12:26 | 29.60692 | 34.15987 | 37025 ft | 531 kts | 93° |
| 2026-05-04 12:26 | 29.60674 | 34.24492 | 37028 ft | 531 kts | 93° |
| 2026-05-04 12:27 | 29.60687 | 34.32939 | 37034 ft | 530 kts | 93° |
| 2026-05-04 12:27 | 29.60695 | 34.41418 | 37037 ft | 530 kts | 93° |
| 2026-05-04 12:28 | 29.60699 | 34.49902 | 37037 ft | 530 kts | 93° |
| 2026-05-04 12:28 | 29.60070 | 34.58247 | 37040 ft | 515 kts | 114° |
| 2026-05-04 12:29 | 29.58660 | 34.61945 | 37045 ft | 497 kts | 131° |
| 2026-05-04 12:29 | 29.56567 | 34.65000 | 37043 ft | 475 kts | 148° |
| 2026-05-04 12:29 | 29.54023 | 34.67268 | 37063 ft | 459 kts | 156° |
| 2026-05-04 12:29 | 29.51451 | 34.69494 | 37025 ft | 466 kts | 153° |
| 2026-05-04 12:30 | 29.46461 | 34.74228 | 37025 ft | 478 kts | 142° |
| 2026-05-04 12:30 | 29.44466 | 34.77372 | 37007 ft | 497 kts | 125° |
| 2026-05-04 12:30 | 29.43227 | 34.81134 | 37031 ft | 514 kts | 107° |
| 2026-05-04 12:31 | 29.42800 | 34.85248 | 37056 ft | 524 kts | 96° |
| 2026-05-04 12:31 | 29.42476 | 34.89410 | 37015 ft | 522 kts | 104° |
| 2026-05-04 12:31 | 29.41683 | 34.97701 | 36960 ft | 527 kts | 88° |
| 2026-05-04 12:32 | 29.42354 | 35.01840 | 37027 ft | 527 kts | 74° |
| 2026-05-04 12:32 | 29.44069 | 35.10024 | 37065 ft | 532 kts | 78° |
| 2026-05-04 12:33 | 29.45731 | 35.18317 | 37028 ft | 532 kts | 78° |
| 2026-05-04 12:33 | 29.47408 | 35.26604 | 37049 ft | 533 kts | 78° |
| 2026-05-04 12:34 | 29.49082 | 35.34895 | 37047 ft | 534 kts | 78° |
| 2026-05-04 12:34 | 29.50743 | 35.43158 | 37047 ft | 534 kts | 78° |
| 2026-05-04 12:35 | 29.52405 | 35.51450 | 37038 ft | 533 kts | 78° |
| 2026-05-04 12:35 | 29.54068 | 35.59768 | 37040 ft | 534 kts | 78° |
| 2026-05-04 12:36 | 29.55724 | 35.68084 | 37027 ft | 533 kts | 78° |
| 2026-05-04 12:36 | 29.57308 | 35.76054 | 37026 ft | 534 kts | 78° |
| 2026-05-04 12:37 | 29.58951 | 35.84363 | 37028 ft | 533 kts | 78° |
| 2026-05-04 12:37 | 29.60584 | 35.92646 | 37014 ft | 533 kts | 78° |
| 2026-05-04 12:38 | 29.62218 | 36.00964 | 37016 ft | 533 kts | 78° |
| 2026-05-04 12:38 | 29.63845 | 36.09271 | 37023 ft | 533 kts | 78° |
| 2026-05-04 12:39 | 29.65471 | 36.17611 | 37014 ft | 533 kts | 78° |
| 2026-05-04 12:39 | 29.67092 | 36.25948 | 37007 ft | 533 kts | 78° |
| 2026-05-04 12:40 | 29.68701 | 36.34254 | 37010 ft | 533 kts | 78° |
| 2026-05-04 12:40 | 29.70309 | 36.42585 | 37006 ft | 533 kts | 78° |
| 2026-05-04 12:41 | 29.71912 | 36.50925 | 37005 ft | 533 kts | 78° |
| 2026-05-04 12:41 | 29.73509 | 36.59248 | 37001 ft | 532 kts | 78° |
| 2026-05-04 12:42 | 29.74939 | 36.67596 | 36943 ft | 529 kts | 90° |
| 2026-05-04 12:42 | 29.74769 | 36.71763 | 36933 ft | 515 kts | 107° |
| 2026-05-04 12:42 | 29.73904 | 36.75677 | 36995 ft | 512 kts | 110° |
| 2026-05-04 12:43 | 29.72229 | 36.83691 | 36967 ft | 515 kts | 109° |
| 2026-05-04 12:43 | 29.70617 | 36.91725 | 36961 ft | 515 kts | 109° |
| 2026-05-04 12:44 | 29.69010 | 36.99760 | 36980 ft | 515 kts | 109° |
| 2026-05-04 12:44 | 29.67398 | 37.07792 | 36968 ft | 514 kts | 109° |
| 2026-05-04 12:45 | 29.65794 | 37.15763 | 36972 ft | 514 kts | 109° |
| 2026-05-04 12:45 | 29.64178 | 37.23760 | 36968 ft | 514 kts | 109° |
| 2026-05-04 12:46 | 29.62555 | 37.31771 | 36967 ft | 513 kts | 109° |
| 2026-05-04 12:46 | 29.60935 | 37.39742 | 36958 ft | 512 kts | 109° |
| 2026-05-04 12:47 | 29.59311 | 37.47702 | 36963 ft | 512 kts | 109° |
| 2026-05-04 12:47 | 29.57957 | 37.54321 | 36960 ft | 512 kts | 109° |
| 2026-05-04 12:48 | 29.56323 | 37.62286 | 36961 ft | 512 kts | 109° |
| 2026-05-04 12:48 | 29.54680 | 37.70263 | 36963 ft | 512 kts | 109° |
| 2026-05-04 12:49 | 29.53050 | 37.78162 | 36960 ft | 512 kts | 109° |
| 2026-05-04 12:49 | 29.51402 | 37.86113 | 36963 ft | 512 kts | 110° |
| 2026-05-04 12:50 | 29.49741 | 37.94113 | 36963 ft | 512 kts | 110° |
| 2026-05-04 12:50 | 29.48185 | 38.02056 | 36963 ft | 514 kts | 108° |
| 2026-05-04 12:51 | 29.46760 | 38.10067 | 36961 ft | 513 kts | 108° |
| 2026-05-04 12:51 | 29.45333 | 38.18100 | 36969 ft | 513 kts | 108° |
| 2026-05-04 12:52 | 29.43902 | 38.26142 | 36973 ft | 513 kts | 108° |
| 2026-05-04 12:52 | 29.42467 | 38.34159 | 36973 ft | 514 kts | 108° |
| 2026-05-04 12:53 | 29.41034 | 38.42142 | 36969 ft | 513 kts | 108° |
| 2026-05-04 12:53 | 29.39589 | 38.50166 | 36977 ft | 514 kts | 108° |
| 2026-05-04 12:54 | 29.38139 | 38.58190 | 36980 ft | 513 kts | 108° |
| 2026-05-04 12:54 | 29.36684 | 38.66202 | 36984 ft | 513 kts | 108° |
| 2026-05-04 12:55 | 29.35225 | 38.74221 | 36975 ft | 513 kts | 108° |
| 2026-05-04 12:55 | 29.33613 | 38.82171 | 36952 ft | 504 kts | 119° |
| 2026-05-04 12:55 | 29.32044 | 38.85659 | 36960 ft | 480 kts | 136° |
| 2026-05-04 12:56 | 29.29866 | 38.88406 | 36974 ft | 456 kts | 153° |
| 2026-05-04 12:56 | 29.27292 | 38.90263 | 36975 ft | 430 kts | 169° |
| 2026-05-04 12:56 | 29.24511 | 38.91167 | 36982 ft | 406 kts | 183° |
| 2026-05-04 12:57 | 29.18888 | 38.92009 | 36965 ft | 407 kts | 184° |
| 2026-05-04 12:57 | 29.13255 | 38.92900 | 36968 ft | 418 kts | 174° |
| 2026-05-04 12:57 | 29.10533 | 38.94291 | 36957 ft | 442 kts | 157° |
| 2026-05-04 12:58 | 29.08157 | 38.96671 | 36981 ft | 469 kts | 140° |
| 2026-05-04 12:58 | 29.06263 | 38.99780 | 36982 ft | 484 kts | 132° |
| 2026-05-04 12:58 | 29.04302 | 39.02863 | 36986 ft | 475 kts | 139° |
| 2026-05-04 12:59 | 29.00156 | 39.08789 | 36976 ft | 477 kts | 139° |
| 2026-05-04 12:59 | 28.96028 | 39.14712 | 36984 ft | 477 kts | 139° |
| 2026-05-04 13:00 | 28.91885 | 39.20651 | 36978 ft | 477 kts | 139° |
| 2026-05-04 13:00 | 28.87752 | 39.26566 | 36979 ft | 477 kts | 139° |
| 2026-05-04 13:01 | 28.83631 | 39.32457 | 36985 ft | 477 kts | 139° |
| 2026-05-04 13:01 | 28.79485 | 39.38374 | 36977 ft | 477 kts | 139° |
| 2026-05-04 13:02 | 28.75341 | 39.44281 | 36984 ft | 478 kts | 139° |
| 2026-05-04 13:02 | 28.71188 | 39.50192 | 36985 ft | 478 kts | 139° |
| 2026-05-04 13:03 | 28.67026 | 39.56107 | 36975 ft | 479 kts | 139° |
| 2026-05-04 13:03 | 28.62855 | 39.62026 | 36985 ft | 478 kts | 139° |
| 2026-05-04 13:04 | 28.58697 | 39.67919 | 36962 ft | 477 kts | 139° |
| 2026-05-04 13:04 | 28.54560 | 39.73774 | 36958 ft | 478 kts | 139° |
| 2026-05-04 13:05 | 28.50381 | 39.79679 | 36964 ft | 479 kts | 139° |
| 2026-05-04 13:05 | 28.46187 | 39.85599 | 36965 ft | 479 kts | 139° |
| 2026-05-04 13:06 | 28.44782 | 39.87580 | 36964 ft | 479 kts | 139° |
| 2026-05-04 13:06 | 28.40594 | 39.93479 | 36964 ft | 479 kts | 139° |
| 2026-05-04 13:07 | 28.36426 | 39.99343 | 36947 ft | 479 kts | 139° |
| 2026-05-04 13:07 | 28.32230 | 40.05238 | 36956 ft | 479 kts | 139° |
| 2026-05-04 13:08 | 28.28383 | 40.11500 | 36958 ft | 491 kts | 131° |
| 2026-05-04 13:08 | 28.24803 | 40.18112 | 36954 ft | 491 kts | 131° |
| 2026-05-04 13:09 | 28.21234 | 40.24730 | 36954 ft | 491 kts | 131° |
| 2026-05-04 13:09 | 28.17677 | 40.31320 | 36953 ft | 491 kts | 131° |
| 2026-05-04 13:10 | 28.14095 | 40.37946 | 36952 ft | 491 kts | 131° |
| 2026-05-04 13:10 | 28.10525 | 40.44540 | 36955 ft | 492 kts | 131° |
| 2026-05-04 13:11 | 28.06970 | 40.51097 | 36949 ft | 491 kts | 131° |
| 2026-05-04 13:11 | 28.03391 | 40.57685 | 36956 ft | 491 kts | 131° |
| 2026-05-04 13:12 | 27.99817 | 40.64257 | 36953 ft | 489 kts | 132° |
| 2026-05-04 13:12 | 27.96244 | 40.70817 | 36952 ft | 490 kts | 131° |
| 2026-05-04 13:13 | 27.92661 | 40.77383 | 36961 ft | 488 kts | 132° |
| 2026-05-04 13:13 | 27.89097 | 40.83907 | 36967 ft | 488 kts | 132° |
| 2026-05-04 13:14 | 27.85523 | 40.90438 | 36963 ft | 488 kts | 132° |
| 2026-05-04 13:14 | 27.81943 | 40.96968 | 36960 ft | 488 kts | 132° |
| 2026-05-04 13:15 | 27.78359 | 41.03501 | 36968 ft | 488 kts | 132° |
| 2026-05-04 13:15 | 27.74793 | 41.09986 | 36962 ft | 486 kts | 132° |
| 2026-05-04 13:16 | 27.71219 | 41.16478 | 36960 ft | 486 kts | 132° |
| 2026-05-04 13:16 | 27.67640 | 41.22970 | 36967 ft | 487 kts | 132° |
| 2026-05-04 13:17 | 27.64057 | 41.29460 | 36962 ft | 487 kts | 132° |
| 2026-05-04 13:17 | 27.60497 | 41.35898 | 36960 ft | 487 kts | 132° |
| 2026-05-04 13:18 | 27.56911 | 41.42375 | 36950 ft | 485 kts | 132° |
| 2026-05-04 13:18 | 27.53331 | 41.48829 | 36960 ft | 486 kts | 132° |
| 2026-05-04 13:19 | 27.49753 | 41.55273 | 36975 ft | 485 kts | 132° |
| 2026-05-04 13:19 | 27.46168 | 41.61717 | 36961 ft | 484 kts | 132° |
| 2026-05-04 13:20 | 27.42613 | 41.68126 | 36961 ft | 487 kts | 131° |
| 2026-05-04 13:20 | 27.39125 | 41.74734 | 36962 ft | 487 kts | 131° |
| 2026-05-04 13:21 | 27.35693 | 41.81257 | 36962 ft | 488 kts | 131° |
| 2026-05-04 13:21 | 27.32236 | 41.87821 | 36960 ft | 487 kts | 131° |
| 2026-05-04 13:22 | 27.28777 | 41.94377 | 36963 ft | 487 kts | 131° |
| 2026-05-04 13:22 | 27.25322 | 42.00916 | 36961 ft | 487 kts | 131° |
| 2026-05-04 13:23 | 27.21868 | 42.07445 | 36963 ft | 486 kts | 130° |
| 2026-05-04 13:23 | 27.19013 | 42.12831 | 36958 ft | 485 kts | 130° |
| 2026-05-04 13:24 | 27.15579 | 42.19303 | 36936 ft | 487 kts | 130° |
| 2026-05-04 13:24 | 27.13843 | 42.22573 | 36773 ft | 486 kts | 130° |
| 2026-05-04 13:24 | 27.12113 | 42.25825 | 36417 ft | 484 kts | 130° |
| 2026-05-04 13:25 | 27.08657 | 42.32320 | 35584 ft | 488 kts | 130° |
| 2026-05-04 13:25 | 27.06908 | 42.35602 | 35163 ft | 492 kts | 130° |
| 2026-05-04 13:25 | 27.05162 | 42.38876 | 34754 ft | 496 kts | 130° |
| 2026-05-04 13:25 | 27.03384 | 42.42207 | 34339 ft | 498 kts | 130° |
| 2026-05-04 13:26 | 27.01603 | 42.45543 | 33593 ft | 499 kts | 129° |
| 2026-05-04 13:26 | 26.99866 | 42.48795 | 32542 ft | 499 kts | 129° |
| 2026-05-04 13:26 | 26.98087 | 42.52120 | 31347 ft | 499 kts | 129° |
| 2026-05-04 13:26 | 26.96300 | 42.55460 | 30120 ft | 498 kts | 128° |
| 2026-05-04 13:27 | 26.94521 | 42.58779 | 28890 ft | 496 kts | 128° |
| 2026-05-04 13:27 | 26.92741 | 42.62099 | 27656 ft | 497 kts | 127° |
| 2026-05-04 13:27 | 26.90953 | 42.65433 | 26407 ft | 498 kts | 127° |
| 2026-05-04 13:27 | 26.89172 | 42.68749 | 25185 ft | 498 kts | 126° |
| 2026-05-04 13:28 | 26.87385 | 42.72076 | 23967 ft | 496 kts | 126° |
| 2026-05-04 13:28 | 26.85589 | 42.75416 | 22744 ft | 490 kts | 125° |
| 2026-05-04 13:28 | 26.83847 | 42.78652 | 21567 ft | 481 kts | 125° |
| 2026-05-04 13:28 | 26.82130 | 42.81839 | 20357 ft | 473 kts | 126° |
| 2026-05-04 13:29 | 26.80463 | 42.84934 | 19204 ft | 466 kts | 125° |
| 2026-05-04 13:29 | 26.78795 | 42.88027 | 18019 ft | 459 kts | 125° |
| 2026-05-04 13:29 | 26.77140 | 42.91093 | 16851 ft | 452 kts | 125° |
| 2026-05-04 13:29 | 26.75523 | 42.94088 | 15693 ft | 445 kts | 125° |
| 2026-05-04 13:30 | 26.73944 | 42.97012 | 14540 ft | 438 kts | 124° |
| 2026-05-04 13:30 | 26.72406 | 42.99857 | 13522 ft | 428 kts | 124° |
| 2026-05-04 13:30 | 26.70882 | 43.02672 | 12512 ft | 418 kts | 124° |
| 2026-05-04 13:30 | 26.69385 | 43.05438 | 11510 ft | 409 kts | 123° |
| 2026-05-04 13:31 | 26.67925 | 43.08132 | 10513 ft | 401 kts | 123° |
| 2026-05-04 13:31 | 26.66489 | 43.10781 | 9567 ft | 394 kts | 123° |
| 2026-05-04 13:31 | 26.65091 | 43.13359 | 9343 ft | 387 kts | 123° |
| 2026-05-04 13:31 | 26.63725 | 43.15877 | 9233 ft | 365 kts | 123° |
| 2026-05-04 13:32 | 26.62581 | 43.18317 | 9139 ft | 351 kts | 111° |
| 2026-05-04 13:32 | 26.61969 | 43.21015 | 8332 ft | 365 kts | 103° |
| 2026-05-04 13:32 | 26.61387 | 43.23814 | 7243 ft | 373 kts | 105° |
| 2026-05-04 13:32 | 26.60779 | 43.26603 | 6735 ft | 359 kts | 105° |
| 2026-05-04 13:33 | 26.60196 | 43.29226 | 6517 ft | 337 kts | 105° |
| 2026-05-04 13:33 | 26.59639 | 43.31697 | 6274 ft | 319 kts | 105° |
| 2026-05-04 13:33 | 26.59109 | 43.34036 | 6026 ft | 303 kts | 105° |
| 2026-05-04 13:33 | 26.58599 | 43.36275 | 5779 ft | 290 kts | 105° |
| 2026-05-04 13:34 | 26.58102 | 43.38446 | 5514 ft | 287 kts | 105° |
| 2026-05-04 13:34 | 26.57610 | 43.40600 | 5276 ft | 286 kts | 105° |
| 2026-05-04 13:34 | 26.57118 | 43.42746 | 5079 ft | 279 kts | 105° |
| 2026-05-04 13:34 | 26.56659 | 43.44754 | 5069 ft | 255 kts | 105° |
| 2026-05-04 13:35 | 26.56238 | 43.46590 | 5060 ft | 233 kts | 106° |
| 2026-05-04 13:35 | 26.55519 | 43.49716 | 5011 ft | 193 kts | 106° |
| 2026-05-04 13:35 | 26.55182 | 43.51168 | 4997 ft | 193 kts | 106° |
| 2026-05-04 13:36 | 26.54847 | 43.52621 | 5020 ft | 193 kts | 106° |
| 2026-05-04 13:36 | 26.54514 | 43.54078 | 5026 ft | 193 kts | 106° |
| 2026-05-04 13:36 | 26.54177 | 43.55537 | 5019 ft | 193 kts | 106° |
| 2026-05-04 13:36 | 26.53842 | 43.56991 | 5013 ft | 194 kts | 106° |
| 2026-05-04 13:37 | 26.53506 | 43.58444 | 4982 ft | 192 kts | 106° |
| 2026-05-04 13:37 | 26.53171 | 43.59889 | 4954 ft | 192 kts | 106° |
| 2026-05-04 13:37 | 26.52837 | 43.61339 | 4990 ft | 193 kts | 106° |
| 2026-05-04 13:37 | 26.52616 | 43.62299 | 5004 ft | 192 kts | 106° |
| 2026-05-04 13:38 | 26.51976 | 43.64141 | 4952 ft | 189 kts | 131° |
| 2026-05-04 13:38 | 26.51025 | 43.65143 | 4892 ft | 188 kts | 143° |
| 2026-05-04 13:38 | 26.49939 | 43.65999 | 4778 ft | 188 kts | 149° |
| 2026-05-04 13:38 | 26.48829 | 43.66728 | 4664 ft | 183 kts | 153° |
| 2026-05-04 13:39 | 26.47755 | 43.67378 | 4492 ft | 170 kts | 154° |
| 2026-05-04 13:39 | 26.46736 | 43.67974 | 4393 ft | 163 kts | 155° |
| 2026-05-04 13:39 | 26.45723 | 43.68561 | 4560 ft | 165 kts | 154° |
| 2026-05-04 13:39 | 26.44704 | 43.69153 | 4620 ft | 164 kts | 154° |
| 2026-05-04 13:40 | 26.43682 | 43.69740 | 4682 ft | 165 kts | 154° |
| 2026-05-04 13:40 | 26.42667 | 43.70326 | 4717 ft | 165 kts | 155° |
| 2026-05-04 13:40 | 26.41637 | 43.70909 | 4442 ft | 164 kts | 155° |
| 2026-05-04 13:40 | 26.40625 | 43.71486 | 4189 ft | 164 kts | 154° |
| 2026-05-04 13:41 | 26.39613 | 43.72063 | 3951 ft | 164 kts | 154° |
| 2026-05-04 13:41 | 26.38600 | 43.72647 | 3724 ft | 164 kts | 154° |
| 2026-05-04 13:41 | 26.37587 | 43.73228 | 3497 ft | 164 kts | 154° |
| 2026-05-04 13:42 | 26.35580 | 43.74400 | 2951 ft | 162 kts | 155° |
| 2026-05-04 13:42 | 26.34561 | 43.74964 | 2805 ft | 164 kts | 155° |
| 2026-05-04 13:42 | 26.33561 | 43.75546 | 2589 ft | 162 kts | 154° |
| 2026-05-04 13:42 | 26.32562 | 43.76125 | 2387 ft | 162 kts | 155° |
| 2026-05-04 13:43 | 26.31546 | 43.76696 | 2184 ft | 161 kts | 154° |
| 2026-05-04 13:43 | 26.30624 | 43.77222 | 2136 ft | 125 kts | 153° |
| 2026-05-04 13:43 | 26.30062 | 43.77541 | 2134 ft | 60 kts | 153° |
| 2026-05-04 13:43 | 26.29746 | 43.77704 | 2137 ft | 44 kts | 165° |
| 2026-05-04 13:44 | 26.29539 | 43.77723 | 2140 ft | 21 kts | 183° |
| 2026-05-04 13:44 | 26.29516 | 43.77722 | 2140 ft | 0 kts | 183° |
| 2026-05-04 13:45 | 26.29512 | 43.77722 | 2139 ft | 4 kts | 183° |
| 2026-05-04 13:45 | 26.29450 | 43.77705 | 2138 ft | 12 kts | 227° |
| 2026-05-04 13:45 | 26.29480 | 43.77619 | 2135 ft | 14 kts | 324° |
| 2026-05-04 13:45 | 26.29574 | 43.77564 | 2137 ft | 16 kts | 333° |
| 2026-05-04 13:46 | 26.29677 | 43.77506 | 2138 ft | 17 kts | 332° |
| 2026-05-04 13:46 | 26.29793 | 43.77439 | 2136 ft | 20 kts | 332° |
| 2026-05-04 13:46 | 26.29881 | 43.77390 | 2136 ft | 22 kts | 333° |
| 2026-05-04 13:46 | 26.30020 | 43.77311 | 2136 ft | 23 kts | 333° |
| 2026-05-04 13:47 | 26.30171 | 43.77225 | 2137 ft | 25 kts | 333° |
| 2026-05-04 13:47 | 26.30289 | 43.77157 | 2139 ft | 17 kts | 333° |
| 2026-05-04 13:47 | 26.30399 | 43.77095 | 2139 ft | 19 kts | 333° |
| 2026-05-04 13:47 | 26.30497 | 43.77037 | 2139 ft | 11 kts | 327° |
| 2026-05-04 13:48 | 26.30501 | 43.76996 | 2141 ft | 6 kts | 245° |
| 2026-05-04 13:48 | 26.30487 | 43.76966 | 2140 ft | 4 kts | 243° |
| 2026-05-04 13:48 | 26.30481 | 43.76953 | 2140 ft | 0 kts | 243° |